Portada
METAR-TAF:

METAR-TAF

Aeroports :

Eastmain River, Quebec, Canadà

latitud: 52-14N, longitud: 078-31W, altitud: 7 m

Observació

L'informe es va fer fa 1 hora i 43 minuts, a les 19:00 UTC
Vent 11 kt del Oest/Nord-Oest amb ràfegues de 18 kt
Temperatura 11°C
Humitat 82%
Pressió 1015 hPa
Visibilitat: 24.1 km
Escasses núvols a una alçada de 1500 ft
Escasses núvols a una alçada de 30000 ft

METAR: CZEM 151900Z 29011G18KT 15SM FEW015 FEW300 11/08 A2997 RMK SC1CI1 CI TR LAST STFD OBS/NEXT 161300 UTC SLP152

Hora: 16:43 (20:43 UTC)


TAF: manca

Observacions i pronòstics meteorològics de més de 4000 aeroports (METAR i TAF).

Les estacions disponibles són els punts grocs i vermells al mapa.

Posi el ratolí al punt desitjat per veure el nom de l'estació.

Feu clic per veure les observacions i els pronòstics meteorològics.

Per canviar el mapa: feu clic els botons verds amb una creu de color negre per apropar; al botó verd amb un guió per allunyar la imatge; o en les fletxes verdes per a mapes adjacents.


METAR-TAF: